createdAt,value
2023-03-04T00:00:31.891Z,18.65
2023-03-04T00:02:58.389Z,17.17
2023-03-04T00:05:24.858Z,21.08
2023-03-04T00:07:51.421Z,24.90
2023-03-04T00:10:17.986Z,23.17
2023-03-04T00:12:44.459Z,12.55
2023-03-04T00:15:11.028Z,14.85
2023-03-04T00:17:37.479Z,23.30
2023-03-04T00:20:04.219Z,15.50
2023-03-04T00:22:30.666Z,19.48
2023-03-04T00:24:57.171Z,30.27
2023-03-04T00:27:23.586Z,24.77
2023-03-04T00:29:50.133Z,17.55
2023-03-04T00:32:18.270Z,18.60
2023-03-04T00:34:44.805Z,24.02
2023-03-04T00:37:11.279Z,20.00
2023-03-04T00:39:37.750Z,19.40
2023-03-04T00:42:04.397Z,18.02
2023-03-04T00:44:30.810Z,19.10
2023-03-04T00:46:57.262Z,16.08
2023-03-04T00:49:23.773Z,20.80
2023-03-04T00:51:50.240Z,24.77
2023-03-04T00:54:16.771Z,23.00
2023-03-04T00:56:43.212Z,17.65
2023-03-04T00:59:09.673Z,25.48
2023-03-04T01:01:36.130Z,19.95
2023-03-04T01:04:02.583Z,17.60
2023-03-04T01:06:29.062Z,22.17
2023-03-04T01:08:55.507Z,20.38
2023-03-04T01:11:22.092Z,21.30
2023-03-04T01:13:48.611Z,21.17
2023-03-04T01:16:15.493Z,20.70
2023-03-04T01:18:42.024Z,21.10
2023-03-04T01:21:08.555Z,14.75
2023-03-04T01:23:35.042Z,21.73
2023-03-04T01:26:01.592Z,14.10
2023-03-04T01:28:28.091Z,19.70
2023-03-04T01:30:54.674Z,24.58
2023-03-04T01:33:21.245Z,19.60
2023-03-04T01:35:47.738Z,20.27
2023-03-04T01:38:14.363Z,20.00
2023-03-04T01:40:40.904Z,24.70
2023-03-04T01:43:07.471Z,15.85
2023-03-04T01:45:35.705Z,20.55
2023-03-04T01:48:02.308Z,18.65
2023-03-04T01:50:33.047Z,19.08
2023-03-04T01:53:00.191Z,16.45
2023-03-04T01:55:26.875Z,19.45
2023-03-04T01:57:54.204Z,14.75
2023-03-04T02:00:33.022Z,20.27
2023-03-04T02:03:04.285Z,19.25
2023-03-04T02:05:31.262Z,16.13
2023-03-04T02:07:59.751Z,22.75
2023-03-04T02:10:26.385Z,22.13
2023-03-04T02:12:53.641Z,17.75
2023-03-04T02:15:20.646Z,15.38
2023-03-04T02:17:47.246Z,20.48
2023-03-04T02:20:30.806Z,30.67
2023-03-04T02:23:15.056Z,23.63
2023-03-04T02:25:55.150Z,17.10
2023-03-04T02:28:21.939Z,19.52
2023-03-04T02:30:48.426Z,22.15
2023-03-04T02:33:17.591Z,11.25
2023-03-04T02:35:44.666Z,18.38
2023-03-04T02:38:12.535Z,20.85
2023-03-04T02:40:41.501Z,20.88
2023-03-04T02:43:11.425Z,15.55
2023-03-04T02:45:49.315Z,18.65
2023-03-04T02:48:21.214Z,20.10
2023-03-04T02:50:51.020Z,26.33
2023-03-04T02:53:17.794Z,18.05
2023-03-04T02:55:44.763Z,18.80
2023-03-04T02:58:12.200Z,19.65
2023-03-04T03:00:39.853Z,22.38
2023-03-04T03:03:07.026Z,20.48
2023-03-04T03:05:34.619Z,20.13
2023-03-04T03:08:01.160Z,22.40
2023-03-04T03:10:27.972Z,22.77
2023-03-04T03:12:54.525Z,18.17
2023-03-04T03:15:21.059Z,19.23
2023-03-04T03:17:47.649Z,23.60
2023-03-04T03:20:15.184Z,13.82
2023-03-04T03:22:42.202Z,27.10
2023-03-04T03:25:11.264Z,21.35
2023-03-04T03:27:38.013Z,15.35
2023-03-04T03:30:05.705Z,19.00
2023-03-04T03:32:32.383Z,16.55
2023-03-04T03:34:58.908Z,19.75
2023-03-04T03:37:25.491Z,13.05
2023-03-04T03:39:51.973Z,21.73
2023-03-04T03:42:18.510Z,22.25
2023-03-04T03:44:44.991Z,22.13
2023-03-04T03:47:11.449Z,14.93
2023-03-04T03:49:37.899Z,18.35
2023-03-04T03:52:04.958Z,16.20
2023-03-04T03:54:31.426Z,15.68
2023-03-04T03:56:57.979Z,19.83
2023-03-04T03:59:24.429Z,15.82
2023-03-04T04:01:51.159Z,19.35
2023-03-04T04:04:17.699Z,13.10
2023-03-04T04:06:44.247Z,22.35
2023-03-04T04:09:10.765Z,17.30
2023-03-04T04:11:37.238Z,12.43
2023-03-04T04:14:03.800Z,15.07
2023-03-04T04:16:30.880Z,15.02
2023-03-04T04:18:57.395Z,14.18
2023-03-04T04:21:23.867Z,22.92
2023-03-04T04:23:50.420Z,28.00
2023-03-04T04:26:16.848Z,19.90
2023-03-04T04:28:43.327Z,15.27
2023-03-04T04:31:09.966Z,15.77
2023-03-04T04:33:36.747Z,16.38
2023-03-04T04:36:05.018Z,10.20
2023-03-04T04:38:31.863Z,21.10
2023-03-04T04:40:59.245Z,18.60
2023-03-04T04:43:25.823Z,19.02
2023-03-04T04:45:52.415Z,14.55
2023-03-04T04:48:18.923Z,7.88
2023-03-04T04:50:45.474Z,13.77
2023-03-04T04:53:14.288Z,13.48
2023-03-04T04:55:40.720Z,22.90
2023-03-04T04:58:07.842Z,11.18
2023-03-04T05:00:34.402Z,13.77
2023-03-04T05:03:00.913Z,14.93
2023-03-04T05:05:27.375Z,19.40
2023-03-04T05:07:53.850Z,15.35
2023-03-04T05:10:20.397Z,11.57
2023-03-04T05:12:47.013Z,14.68
2023-03-04T05:15:13.515Z,14.45
2023-03-04T05:17:40.031Z,15.23
2023-03-04T05:20:07.173Z,13.52
2023-03-04T05:22:33.674Z,14.93
2023-03-04T05:25:00.385Z,12.13
2023-03-04T05:27:26.909Z,21.10
2023-03-04T05:29:55.510Z,17.95
2023-03-04T05:32:21.995Z,19.90
2023-03-04T05:34:48.523Z,19.45
2023-03-04T05:37:14.974Z,11.95
2023-03-04T05:39:41.462Z,13.60
2023-03-04T05:42:08.077Z,16.65
2023-03-04T05:44:34.542Z,17.67
2023-03-04T05:47:01.039Z,13.70
2023-03-04T05:49:27.508Z,15.85
2023-03-04T05:51:53.956Z,17.40
2023-03-04T05:54:21.590Z,16.52
2023-03-04T05:56:48.088Z,15.43
2023-03-04T05:59:20.323Z,12.93
2023-03-04T06:01:47.463Z,13.77
2023-03-04T06:04:13.948Z,16.73
2023-03-04T06:06:40.430Z,24.77
2023-03-04T06:09:07.042Z,15.32
2023-03-04T06:11:35.956Z,17.40
2023-03-04T06:14:03.189Z,18.25
2023-03-04T06:16:29.754Z,13.98
2023-03-04T06:18:56.456Z,10.40
2023-03-04T06:21:23.022Z,20.48
2023-03-04T06:23:49.538Z,14.55
2023-03-04T06:26:16.241Z,16.60
2023-03-04T06:28:43.489Z,16.88
2023-03-04T06:31:10.146Z,11.18
2023-03-04T06:33:36.887Z,20.27
2023-03-04T06:36:03.674Z,21.52
2023-03-04T06:38:30.118Z,15.45
2023-03-04T06:40:57.521Z,15.50
2023-03-04T06:43:24.266Z,16.48
2023-03-04T06:45:50.842Z,15.25
2023-03-04T06:48:17.312Z,16.85
2023-03-04T06:50:43.797Z,12.25
2023-03-04T06:53:10.267Z,18.17
2023-03-04T06:55:36.752Z,16.00
2023-03-04T06:58:03.276Z,16.58
2023-03-04T07:00:29.862Z,13.60
2023-03-04T07:02:59.012Z,9.57
2023-03-04T07:05:25.740Z,17.50
2023-03-04T07:07:52.245Z,14.93
2023-03-04T07:10:19.428Z,15.10
2023-03-04T07:12:46.225Z,14.20
2023-03-04T07:15:13.200Z,11.10
2023-03-04T07:17:39.701Z,19.90
2023-03-04T07:20:06.879Z,8.57
2023-03-04T07:22:33.427Z,11.52
2023-03-04T07:24:59.877Z,12.00
2023-03-04T07:27:26.383Z,11.18
2023-03-04T07:29:52.940Z,15.13
2023-03-04T07:32:19.745Z,10.60
2023-03-04T07:34:46.227Z,8.75
2023-03-04T07:37:12.778Z,11.57
2023-03-04T07:39:39.276Z,17.70
2023-03-04T07:42:05.769Z,13.07
2023-03-04T07:44:32.250Z,14.52
2023-03-04T07:46:58.710Z,12.20
2023-03-04T07:49:25.207Z,8.95
2023-03-04T07:51:51.645Z,13.55
2023-03-04T07:54:20.122Z,12.65
2023-03-04T07:56:46.625Z,11.45
2023-03-04T07:59:13.201Z,10.38
2023-03-04T08:01:40.054Z,13.13
2023-03-04T08:04:07.921Z,4.63
2023-03-04T08:06:35.026Z,16.90
2023-03-04T08:09:05.686Z,17.13
2023-03-04T08:11:33.326Z,18.00
2023-03-04T08:13:59.977Z,8.65
2023-03-04T08:16:27.190Z,17.35
2023-03-04T08:18:57.093Z,12.38
2023-03-04T08:21:26.224Z,9.30
2023-03-04T08:23:53.277Z,9.88
2023-03-04T08:26:30.170Z,8.18
2023-03-04T08:28:57.802Z,10.00
2023-03-04T08:31:25.413Z,12.55
2023-03-04T08:33:52.885Z,13.13
2023-03-04T08:36:20.026Z,10.57
2023-03-04T08:38:46.729Z,8.45
2023-03-04T08:41:14.101Z,13.18
2023-03-04T08:43:40.799Z,8.90
2023-03-04T08:46:07.727Z,8.48
2023-03-04T08:48:36.961Z,7.03
2023-03-04T08:51:14.287Z,9.90
2023-03-04T08:53:41.082Z,16.35
2023-03-04T08:56:08.925Z,8.32
2023-03-04T08:58:36.163Z,16.60
2023-03-04T09:01:03.855Z,14.85
2023-03-04T09:03:30.549Z,8.20
2023-03-04T09:05:57.095Z,10.55
2023-03-04T09:08:23.843Z,11.57
2023-03-04T09:10:53.681Z,13.80
2023-03-04T09:13:20.772Z,14.88
2023-03-04T09:15:49.443Z,3.78
2023-03-04T09:18:17.724Z,10.55
2023-03-04T09:20:45.156Z,13.23
2023-03-04T09:23:12.170Z,13.55
2023-03-04T09:25:39.455Z,12.27
2023-03-04T09:28:06.892Z,8.18
2023-03-04T09:30:34.613Z,8.25
2023-03-04T09:33:01.574Z,13.05
2023-03-04T09:35:29.982Z,14.77
2023-03-04T09:37:58.695Z,6.80
2023-03-04T09:40:32.579Z,12.98
2023-03-04T09:43:04.100Z,11.05
2023-03-04T09:45:53.304Z,15.20
2023-03-04T09:48:27.440Z,16.05
2023-03-04T09:51:03.514Z,12.60
2023-03-04T09:53:40.690Z,11.10
2023-03-04T09:56:07.393Z,13.13
2023-03-04T09:58:54.867Z,19.85
2023-03-04T10:01:21.294Z,18.63
2023-03-04T10:04:07.931Z,14.48
2023-03-04T10:06:34.785Z,10.88
2023-03-04T10:09:21.260Z,13.45
2023-03-04T10:12:01.612Z,10.50
2023-03-04T10:14:53.430Z,10.55
2023-03-04T10:17:30.081Z,6.30
2023-03-04T10:20:03.690Z,7.03
2023-03-04T10:22:56.510Z,7.45
2023-03-04T10:25:27.620Z,6.32
2023-03-04T10:28:03.109Z,6.38
2023-03-04T10:30:50.656Z,7.03
2023-03-04T10:33:30.564Z,11.02
2023-03-04T10:36:03.118Z,9.55
2023-03-04T10:38:35.872Z,12.90
2023-03-04T10:41:13.846Z,8.75
2023-03-04T10:43:40.491Z,3.15
2023-03-04T10:46:10.827Z,10.27
2023-03-04T10:48:40.660Z,13.02
2023-03-04T10:51:20.098Z,12.35
2023-03-04T10:53:48.692Z,7.85
2023-03-04T10:56:31.571Z,5.80
2023-03-04T10:59:33.356Z,4.13
2023-03-04T11:02:20.023Z,10.50
2023-03-04T11:05:05.052Z,6.43
2023-03-04T11:07:43.542Z,4.55
2023-03-04T11:10:23.425Z,11.23
2023-03-04T11:12:58.869Z,4.30
2023-03-04T11:15:27.640Z,9.90
2023-03-04T11:17:59.515Z,5.78
2023-03-04T11:20:36.271Z,6.32
2023-03-04T11:23:11.264Z,7.38
2023-03-04T11:25:43.790Z,6.28
2023-03-04T11:28:19.267Z,6.78
2023-03-04T11:30:48.621Z,0.30
2023-03-04T11:33:27.966Z,5.53
2023-03-04T11:35:59.290Z,5.50
2023-03-04T11:38:44.421Z,4.63
2023-03-04T11:41:19.281Z,7.30
2023-03-04T11:43:47.148Z,5.47
2023-03-04T11:46:33.081Z,6.53
2023-03-04T11:49:21.452Z,7.88
2023-03-04T11:52:04.527Z,6.88
2023-03-04T11:54:46.227Z,9.13
2023-03-04T11:57:43.709Z,2.47
2023-03-04T12:00:16.492Z,7.15
2023-03-04T12:02:55.198Z,7.45
2023-03-04T12:05:58.575Z,16.98
2023-03-04T12:08:59.449Z,8.27
2023-03-04T12:11:56.311Z,7.07
2023-03-04T12:14:30.739Z,9.02
2023-03-04T12:17:30.482Z,8.43
2023-03-04T12:19:59.713Z,7.15
2023-03-04T12:22:41.296Z,11.30
2023-03-04T12:25:26.631Z,13.93
2023-03-04T12:28:08.251Z,12.52
2023-03-04T12:30:40.911Z,10.07
2023-03-04T12:33:07.413Z,9.07
2023-03-04T12:35:41.619Z,9.60
2023-03-04T12:38:31.559Z,0.73
2023-03-04T12:41:17.282Z,7.80
2023-03-04T12:44:08.350Z,7.22
2023-03-04T12:46:50.747Z,8.73
2023-03-04T12:49:37.644Z,7.22
2023-03-04T12:52:07.050Z,8.10
2023-03-04T12:54:43.499Z,5.28
2023-03-04T12:57:17.869Z,8.82
2023-03-04T12:59:52.016Z,8.33
2023-03-04T13:02:55.248Z,4.07
2023-03-04T13:05:33.763Z,8.15
2023-03-04T13:08:31.105Z,7.70
2023-03-04T13:11:33.180Z,8.68
2023-03-04T13:14:09.464Z,5.68
2023-03-04T13:16:44.104Z,8.20
2023-03-04T13:19:47.599Z,13.90
2023-03-04T13:22:32.352Z,11.93
2023-03-04T13:25:02.516Z,3.28
2023-03-04T13:27:50.777Z,5.88
2023-03-04T13:30:32.529Z,9.65
2023-03-04T13:33:21.537Z,5.20
2023-03-04T13:36:01.806Z,9.10
2023-03-04T13:38:28.470Z,3.17
2023-03-04T13:41:15.318Z,13.98
2023-03-04T13:43:47.488Z,9.75
2023-03-04T13:46:20.079Z,6.82
2023-03-04T13:48:49.395Z,6.95
2023-03-04T13:51:44.170Z,8.05
2023-03-04T13:54:18.695Z,6.80
2023-03-04T13:57:00.485Z,5.65
2023-03-04T13:59:32.148Z,7.15
2023-03-04T14:02:02.935Z,4.28
2023-03-04T14:04:34.202Z,5.82
2023-03-04T14:07:03.772Z,5.90
2023-03-04T14:09:33.445Z,6.78
2023-03-04T14:12:04.461Z,7.40
2023-03-04T14:14:41.625Z,9.07
2023-03-04T14:17:19.279Z,9.80
2023-03-04T14:19:47.432Z,16.80
2023-03-04T14:22:28.715Z,7.75
2023-03-04T14:24:58.885Z,5.07
2023-03-04T14:27:25.633Z,8.60
2023-03-04T14:29:57.412Z,8.43
2023-03-04T14:32:25.062Z,14.40
2023-03-04T14:34:57.621Z,10.13
2023-03-04T14:37:43.433Z,11.55
2023-03-04T14:40:23.792Z,7.20
2023-03-04T14:42:56.490Z,8.35
2023-03-04T14:45:24.574Z,14.85
2023-03-04T14:47:54.510Z,15.23
2023-03-04T14:50:21.000Z,10.75
2023-03-04T14:52:53.051Z,4.38
2023-03-04T14:55:26.323Z,9.48
2023-03-04T14:58:27.076Z,6.93
2023-03-04T15:01:35.897Z,10.55
2023-03-04T15:04:14.051Z,12.82
2023-03-04T15:06:52.208Z,12.77
2023-03-04T15:09:25.327Z,12.30
2023-03-04T15:11:57.730Z,11.05
2023-03-04T15:14:43.879Z,12.85
2023-03-04T15:17:37.358Z,18.08
2023-03-04T15:20:09.648Z,9.93
2023-03-04T15:22:45.081Z,14.40
2023-03-04T15:27:48.701Z,13.95
2023-03-04T15:30:18.655Z,15.13
2023-03-04T15:32:45.178Z,9.25
2023-03-04T15:35:13.138Z,10.05
2023-03-04T15:37:40.603Z,6.22
2023-03-04T15:40:18.896Z,13.13
2023-03-04T15:42:45.374Z,9.15
2023-03-04T15:45:23.425Z,10.00
2023-03-04T15:47:50.247Z,5.40
2023-03-04T15:50:18.560Z,10.45
2023-03-04T15:52:45.758Z,8.35
2023-03-04T15:55:21.030Z,9.52
2023-03-04T15:57:50.476Z,11.23
2023-03-04T16:00:17.449Z,9.13
2023-03-04T16:02:43.940Z,11.27
2023-03-04T16:05:10.905Z,8.93
2023-03-04T16:07:40.543Z,6.07
2023-03-04T16:10:15.520Z,10.63
2023-03-04T16:12:43.182Z,7.20
2023-03-04T16:15:20.160Z,5.90
2023-03-04T16:17:47.308Z,4.32
2023-03-04T16:20:16.543Z,6.47
2023-03-04T16:22:45.755Z,7.20
2023-03-04T16:25:13.868Z,7.20
2023-03-04T16:27:41.455Z,3.22
2023-03-04T16:30:19.947Z,6.72
2023-03-04T16:32:46.510Z,9.70
2023-03-04T16:35:15.188Z,6.00
2023-03-04T16:37:43.073Z,4.25
2023-03-04T16:40:13.447Z,13.38
2023-03-04T16:42:40.262Z,7.95
2023-03-04T16:45:14.906Z,5.20
2023-03-04T16:47:41.427Z,9.95
2023-03-04T16:50:14.522Z,10.32
2023-03-04T16:52:45.528Z,10.45
2023-03-04T16:55:18.833Z,11.20
2023-03-04T16:57:45.442Z,11.70
2023-03-04T17:00:13.516Z,9.40
2023-03-04T17:02:40.551Z,11.18
2023-03-04T17:05:09.863Z,5.65
2023-03-04T17:07:36.801Z,9.90
2023-03-04T17:10:03.388Z,7.88
2023-03-04T17:12:30.455Z,10.13
2023-03-04T17:14:57.018Z,7.80
2023-03-04T17:17:23.490Z,12.85
2023-03-04T17:19:50.044Z,9.77
2023-03-04T17:22:16.564Z,12.30
2023-03-04T17:24:43.000Z,10.32
2023-03-04T17:27:09.469Z,8.57
2023-03-04T17:29:35.969Z,6.30
2023-03-04T17:32:02.476Z,7.55
2023-03-04T17:34:29.016Z,8.10
2023-03-04T17:36:55.529Z,6.65
2023-03-04T17:39:22.031Z,12.02
2023-03-04T17:41:52.505Z,10.38
2023-03-04T17:44:19.327Z,11.80
2023-03-04T17:46:49.523Z,11.02
2023-03-04T17:49:16.656Z,29.63
2023-03-04T17:51:43.838Z,13.07
2023-03-04T17:54:11.229Z,12.20
2023-03-04T17:56:40.489Z,5.38
2023-03-04T17:59:09.149Z,8.20
2023-03-04T18:01:35.918Z,17.63
2023-03-04T18:04:02.771Z,5.93
2023-03-04T18:06:29.347Z,13.68
2023-03-04T18:08:55.844Z,21.77
2023-03-04T18:11:24.656Z,17.55
2023-03-04T18:13:51.602Z,15.77
2023-03-04T18:16:23.404Z,14.02
2023-03-04T18:18:51.001Z,17.55
2023-03-04T18:21:18.338Z,16.55
2023-03-04T18:23:45.181Z,20.50
2023-03-04T18:26:12.477Z,19.63
2023-03-04T18:28:38.970Z,22.40
2023-03-04T18:31:05.463Z,21.70
2023-03-04T18:33:32.493Z,13.55
2023-03-04T18:36:01.190Z,16.13
2023-03-04T18:38:28.667Z,21.73
2023-03-04T18:40:59.858Z,22.90
2023-03-04T18:43:26.737Z,22.83
2023-03-04T18:46:07.111Z,19.85
2023-03-04T18:48:45.440Z,15.65
2023-03-04T18:51:12.002Z,22.38
2023-03-04T18:53:39.277Z,14.48
2023-03-04T18:56:16.882Z,17.13
2023-03-04T18:58:45.070Z,15.50
2023-03-04T19:01:13.135Z,19.08
2023-03-04T19:03:41.129Z,11.77
2023-03-04T19:06:07.822Z,13.73
2023-03-04T19:08:34.655Z,15.90
2023-03-04T19:11:01.371Z,18.73
2023-03-04T19:13:30.531Z,14.45
2023-03-04T19:15:57.335Z,16.83
2023-03-04T19:18:23.864Z,24.67
2023-03-04T19:20:50.362Z,17.70
2023-03-04T19:23:17.117Z,11.45
2023-03-04T19:25:44.252Z,13.93
2023-03-04T19:28:11.677Z,12.90
2023-03-04T19:30:39.928Z,12.57
2023-03-04T19:33:06.947Z,11.13
2023-03-04T19:35:33.907Z,19.60
2023-03-04T19:38:01.159Z,10.13
2023-03-04T19:40:28.311Z,15.48
2023-03-04T19:42:56.786Z,21.02
2023-03-04T19:45:23.558Z,9.43
2023-03-04T19:47:50.013Z,13.90
2023-03-04T19:50:17.180Z,9.32
2023-03-04T19:52:43.710Z,13.80
2023-03-04T19:55:12.851Z,14.48
2023-03-04T19:57:41.759Z,6.05
2023-03-04T20:00:12.793Z,11.75
2023-03-04T20:02:39.972Z,12.73
2023-03-04T20:05:07.107Z,21.35
2023-03-04T20:07:33.613Z,11.90
2023-03-04T20:10:00.140Z,10.32
2023-03-04T20:12:26.894Z,20.13
2023-03-04T20:14:53.440Z,9.20
2023-03-04T20:17:19.990Z,7.00
2023-03-04T20:19:47.480Z,17.40
2023-03-04T20:22:13.969Z,9.05
2023-03-04T20:24:40.527Z,17.15
2023-03-04T20:27:07.053Z,19.33
2023-03-04T20:29:33.502Z,18.40
2023-03-04T20:32:01.298Z,14.95
2023-03-04T20:34:27.778Z,8.75
2023-03-04T20:36:54.224Z,11.05
2023-03-04T20:39:29.757Z,17.88
2023-03-04T20:41:58.217Z,10.15
2023-03-04T20:44:24.850Z,9.93
2023-03-04T20:46:52.527Z,13.25
2023-03-04T20:49:24.044Z,11.75
2023-03-04T20:51:56.005Z,12.23
2023-03-04T20:54:22.573Z,11.90
2023-03-04T20:56:49.610Z,9.45
2023-03-04T20:59:16.761Z,14.90
2023-03-04T21:01:45.062Z,11.88
2023-03-04T21:04:11.826Z,15.98
2023-03-04T21:06:39.518Z,14.85
2023-03-04T21:09:09.310Z,16.83
2023-03-04T21:11:40.374Z,13.77
2023-03-04T21:14:16.327Z,13.98
2023-03-04T21:16:43.100Z,12.70
2023-03-04T21:19:15.692Z,13.18
2023-03-04T21:21:42.133Z,15.02
2023-03-04T21:24:13.105Z,21.38
2023-03-04T21:26:39.800Z,16.10
2023-03-04T21:29:06.289Z,9.48
2023-03-04T21:31:37.214Z,18.30
2023-03-04T21:34:03.688Z,13.80
2023-03-04T21:36:30.190Z,16.02
2023-03-04T21:38:56.697Z,14.80
2023-03-04T21:41:24.570Z,13.35
2023-03-04T21:43:51.971Z,13.25
2023-03-04T21:46:19.149Z,12.43
2023-03-04T21:48:47.700Z,12.75
2023-03-04T21:51:16.268Z,20.73
2023-03-04T21:53:43.453Z,10.25
2023-03-04T21:56:12.080Z,12.02
2023-03-04T21:58:42.327Z,13.70
2023-03-04T22:01:10.872Z,12.30
2023-03-04T22:03:37.470Z,14.88
2023-03-04T22:06:09.273Z,16.65
2023-03-04T22:08:36.370Z,17.55
2023-03-04T22:11:07.930Z,14.02
2023-03-04T22:13:34.629Z,15.30
2023-03-04T22:16:01.684Z,14.27
2023-03-04T22:18:28.241Z,17.58
2023-03-04T22:21:03.285Z,12.20
2023-03-04T22:23:30.150Z,14.57
2023-03-04T22:25:59.284Z,16.15
2023-03-04T22:28:28.319Z,12.93
2023-03-04T22:30:56.052Z,15.35
2023-03-04T22:33:23.712Z,15.73
2023-03-04T22:35:51.317Z,14.10
2023-03-04T22:38:18.648Z,13.85
2023-03-04T22:40:45.155Z,11.93
2023-03-04T22:43:11.645Z,11.32
2023-03-04T22:45:38.210Z,8.82
2023-03-04T22:48:05.022Z,14.27
2023-03-04T22:50:31.482Z,15.98
2023-03-04T22:52:58.202Z,10.88
2023-03-04T22:55:24.692Z,21.85
2023-03-04T22:57:51.169Z,18.52
2023-03-04T23:00:20.662Z,14.13
2023-03-04T23:02:47.449Z,16.67
2023-03-04T23:05:14.648Z,15.00
2023-03-04T23:07:41.950Z,13.40
2023-03-04T23:10:13.337Z,18.50
2023-03-04T23:12:40.670Z,13.82
2023-03-04T23:15:08.202Z,15.35
2023-03-04T23:17:34.878Z,16.48
2023-03-04T23:20:01.403Z,17.98
2023-03-04T23:22:27.953Z,13.27
2023-03-04T23:24:54.446Z,15.27
2023-03-04T23:27:20.910Z,14.57
2023-03-04T23:29:47.424Z,17.83
2023-03-04T23:32:13.965Z,16.10
2023-03-04T23:34:40.560Z,13.38
2023-03-04T23:37:07.090Z,16.42
2023-03-04T23:39:33.583Z,16.73
2023-03-04T23:42:00.076Z,19.35
2023-03-04T23:44:26.695Z,16.67
2023-03-04T23:46:53.717Z,18.00
2023-03-04T23:49:20.172Z,21.45
2023-03-04T23:51:46.771Z,14.65
2023-03-04T23:54:13.794Z,16.75
2023-03-04T23:56:40.407Z,18.45
2023-03-04T23:59:07.921Z,10.63
